Time;durP1;ratioP1;P1;durP2;ratioP2;P2;SDS_P1;SDS_P2;PMS_P1;PMS_P2;Temp;Humidity;BMP_temperature;BMP_pressure;BME280_temperature;BME280_humidity;BME280_pressure;Samples;Min_cycle;Max_cycle;Signal;HPM_P1;HPM_P2
2022/04/03 00:00:34;;;;;;;5.30;3.65;;;-0.40;32.20;;;;;;5109078;27;34183;-78
2022/04/03 00:03:01;;;;;;;5.68;3.60;;;-0.40;33.20;;;;;;5091460;27;36883;-78
2022/04/03 00:05:28;;;;;;;6.13;4.13;;;-0.40;32.40;;;;;;5108727;27;34149;-78
2022/04/03 00:07:55;;;;;;;6.50;3.90;;;-0.50;32.40;;;;;;5127085;27;34319;-78
2022/04/03 00:10:22;;;;;;;4.30;3.75;;;-0.50;32.60;;;;;;5108571;27;34072;-77
2022/04/03 00:12:49;;;;;;;8.38;3.83;;;-0.50;32.80;;;;;;5126999;27;34156;-77
2022/04/03 00:15:15;;;;;;;4.88;3.78;;;-0.50;32.70;;;;;;5109385;27;34156;-78
2022/04/03 00:17:42;;;;;;;5.03;3.67;;;-0.60;33.00;;;;;;5108591;27;34156;-78
2022/04/03 00:20:10;;;;;;;7.25;4.55;;;-0.60;33.10;;;;;;5108611;27;34426;-78
2022/04/03 00:22:36;;;;;;;6.85;3.90;;;-0.60;33.10;;;;;;5091207;27;35699;-77
2022/04/03 00:25:04;;;;;;;5.72;3.85;;;-0.60;32.90;;;;;;5108360;27;34181;-77
2022/04/03 00:27:30;;;;;;;6.00;4.43;;;-0.60;32.80;;;;;;5074616;27;34212;-77
2022/04/03 00:29:56;;;;;;;4.43;4.00;;;-0.60;32.80;;;;;;5108654;27;34475;-78
2022/04/03 00:32:22;;;;;;;5.55;3.97;;;-0.60;32.70;;;;;;5126335;27;34458;-77
2022/04/03 00:34:48;;;;;;;3.88;3.13;;;-0.70;32.80;;;;;;5108745;27;34215;-77
2022/04/03 00:37:14;;;;;;;6.43;3.92;;;-0.70;32.70;;;;;;5091816;27;34131;-77
2022/04/03 00:39:40;;;;;;;4.13;3.47;;;-0.70;32.80;;;;;;5108765;27;34401;-77
2022/04/03 00:42:08;;;;;;;4.57;3.58;;;-0.70;32.80;;;;;;5091007;27;35492;-77
2022/04/03 00:44:35;;;;;;;6.32;4.25;;;-0.70;32.80;;;;;;5108131;27;34228;-77
2022/04/03 00:47:02;;;;;;;4.15;3.50;;;-0.80;32.80;;;;;;5108338;27;34069;-77
2022/04/03 00:49:29;;;;;;;6.03;4.30;;;-0.80;33.10;;;;;;5108826;27;34127;-77
2022/04/03 00:51:55;;;;;;;4.63;3.58;;;-0.80;33.10;;;;;;5126504;27;34268;-77
2022/04/03 00:54:21;;;;;;;5.50;3.88;;;-0.80;33.20;;;;;;5126116;27;33991;-77
2022/04/03 00:56:47;;;;;;;5.43;3.92;;;-0.90;33.00;;;;;;5107979;27;34170;-77
2022/04/03 00:59:14;;;;;;;6.30;4.03;;;-0.90;33.10;;;;;;5108001;27;34472;-77
2022/04/03 01:01:43;;;;;;;4.82;3.92;;;-0.90;33.30;;;;;;5107794;27;36589;-77
2022/04/03 01:04:09;;;;;;;5.47;4.18;;;-0.90;33.40;;;;;;5126594;27;34023;-77
2022/04/03 01:06:36;;;;;;;5.72;3.88;;;-0.90;33.50;;;;;;5090620;27;33989;-77
2022/04/03 01:09:03;;;;;;;6.70;4.07;;;-0.90;33.50;;;;;;5107727;27;33992;-77
2022/04/03 01:11:30;;;;;;;7.15;4.35;;;-0.90;33.60;;;;;;5090538;27;36465;-77
2022/04/03 01:13:57;;;;;;;6.78;3.80;;;-1.00;33.60;;;;;;5090883;27;34127;-77
2022/04/03 01:16:23;;;;;;;5.53;3.42;;;-0.90;33.40;;;;;;5107852;27;34145;-77
2022/04/03 01:18:50;;;;;;;5.75;3.92;;;-0.90;33.60;;;;;;5125795;27;34494;-77
2022/04/03 01:21:17;;;;;;;6.13;4.10;;;-0.90;33.30;;;;;;5107245;27;36438;-77
2022/04/03 01:23:44;;;;;;;6.30;4.55;;;-0.90;33.50;;;;;;5074041;27;34143;-77
2022/04/03 01:26:10;;;;;;;7.28;4.63;;;-1.00;33.40;;;;;;5107660;27;34218;-77
2022/04/03 01:28:36;;;;;;;6.75;4.60;;;-1.00;33.10;;;;;;5107484;27;34246;-77
2022/04/03 01:31:02;;;;;;;7.07;4.47;;;-0.90;32.80;;;;;;5107116;27;36088;-77
2022/04/03 01:33:28;;;;;;;8.48;4.55;;;-1.00;32.80;;;;;;5107293;27;34469;-77
2022/04/03 01:35:54;;;;;;;7.50;4.28;;;-1.00;32.70;;;;;;5107245;27;34300;-77
2022/04/03 01:38:21;;;;;;;6.25;3.90;;;-1.00;33.00;;;;;;5107241;27;34498;-77
2022/04/03 01:40:47;;;;;;;5.30;3.67;;;-1.10;33.40;;;;;;5106947;27;35492;-77
2022/04/03 01:43:13;;;;;;;6.60;4.15;;;-1.10;33.20;;;;;;5106899;27;34328;-77
2022/04/03 01:45:39;;;;;;;4.65;3.80;;;-1.10;32.80;;;;;;5107262;27;34085;-77
2022/04/03 01:48:07;;;;;;;4.53;3.60;;;-1.20;32.90;;;;;;5107405;27;34189;-77
2022/04/03 01:50:33;;;;;;;6.35;4.07;;;-1.20;32.90;;;;;;5106301;27;35875;-77
2022/04/03 01:52:59;;;;;;;6.15;4.03;;;-1.20;33.20;;;;;;5089583;27;34012;-77
2022/04/03 01:55:25;;;;;;;5.80;4.20;;;-1.30;33.50;;;;;;5125034;27;34272;-77
2022/04/03 01:57:53;;;;;;;7.78;4.75;;;-1.30;33.50;;;;;;5125368;27;34047;-77
2022/04/03 02:00:19;;;;;;;6.45;3.92;;;-1.30;33.60;;;;;;5107240;27;34260;-77
2022/04/03 02:02:45;;;;;;;5.63;3.17;;;-1.40;33.40;;;;;;5125164;27;34148;-77
2022/04/03 02:05:11;;;;;;;5.05;3.78;;;-1.40;33.30;;;;;;5106734;27;34318;-77
2022/04/03 02:07:38;;;;;;;4.65;3.80;;;-1.40;33.20;;;;;;5106319;27;34125;-77
2022/04/03 02:10:12;;;;;;;6.68;4.30;;;-1.40;33.50;;;;;;5106839;27;35959;-77
2022/04/03 02:12:39;;;;;;;6.00;4.13;;;-1.50;33.30;;;;;;5090243;27;34251;-77
2022/04/03 02:15:08;;;;;;;7.75;4.38;;;-1.50;33.10;;;;;;5106743;27;34266;-77
2022/04/03 02:17:34;;;;;;;5.05;4.13;;;-1.50;33.10;;;;;;5106743;27;34124;-77
2022/04/03 02:20:00;;;;;;;6.07;4.20;;;-1.60;33.10;;;;;;5106416;27;35906;-77
2022/04/03 02:22:26;;;;;;;7.05;3.85;;;-1.60;33.30;;;;;;5089430;27;34290;-77
2022/04/03 02:24:52;;;;;;;5.50;4.00;;;-1.70;33.40;;;;;;5106976;27;34292;-77
2022/04/03 02:27:18;;;;;;;5.00;3.90;;;-1.70;33.90;;;;;;5089516;27;34374;-77
2022/04/03 02:29:44;;;;;;;5.38;3.47;;;-1.70;34.00;;;;;;5124750;27;34128;-77
2022/04/03 02:32:10;;;;;;;5.28;3.80;;;-1.70;34.00;;;;;;5089679;27;34369;-77
2022/04/03 02:34:36;;;;;;;5.85;3.92;;;-1.70;34.00;;;;;;5105981;27;34024;-77
2022/04/03 02:37:03;;;;;;;5.97;4.15;;;-1.70;34.30;;;;;;5088988;27;34313;-77
2022/04/03 02:39:28;;;;;;;5.80;4.05;;;-1.70;34.30;;;;;;5089344;27;36556;-77
2022/04/03 02:41:54;;;;;;;6.57;3.97;;;-1.60;34.20;;;;;;5089557;27;34242;-77
2022/04/03 02:44:20;;;;;;;5.72;3.90;;;-1.60;34.00;;;;;;5106071;27;34124;-77
2022/04/03 02:46:46;;;;;;;4.65;3.78;;;-1.50;34.30;;;;;;5106218;27;34087;-77
2022/04/03 02:49:12;;;;;;;6.40;4.35;;;-1.50;34.20;;;;;;5106565;27;34295;-77
2022/04/03 02:51:39;;;;;;;6.40;4.25;;;-1.40;34.40;;;;;;5105615;27;34585;-77
2022/04/03 02:54:05;;;;;;;5.40;4.05;;;-1.40;34.10;;;;;;5089656;27;34173;-77
2022/04/03 02:56:31;;;;;;;6.13;3.85;;;-1.30;34.00;;;;;;5105917;27;34093;-77
2022/04/03 02:58:57;;;;;;;6.63;4.97;;;-1.30;34.10;;;;;;5105648;27;35634;-77
2022/04/03 03:01:24;;;;;;;5.60;4.05;;;-1.30;34.10;;;;;;5123998;27;34068;-77
2022/04/03 03:03:50;;;;;;;5.57;4.07;;;-1.30;33.80;;;;;;5102767;28;34090;-78
2022/04/03 03:06:16;;;;;;;7.22;4.55;;;-1.20;33.80;;;;;;5092026;27;34273;-78
2022/04/03 03:08:42;;;;;;;5.55;4.00;;;-1.20;33.80;;;;;;5109100;27;35916;-77
2022/04/03 03:11:10;;;;;;;5.47;3.97;;;-1.20;33.90;;;;;;5109728;27;34386;-77
2022/04/03 03:13:36;;;;;;;5.70;4.07;;;-1.20;33.80;;;;;;5127611;27;34054;-78
2022/04/03 03:16:03;;;;;;;6.90;4.38;;;-1.20;34.20;;;;;;5106582;27;34158;-78
2022/04/03 03:18:29;;;;;;;5.60;4.30;;;-1.10;34.30;;;;;;5088940;28;36529;-78
2022/04/03 03:20:55;;;;;;;5.13;3.88;;;-1.10;34.00;;;;;;5089072;28;34175;-78
2022/04/03 03:23:21;;;;;;;7.30;4.47;;;-1.10;34.10;;;;;;5105789;27;34138;-77
2022/04/03 03:25:47;;;;;;;5.78;4.07;;;-1.10;33.90;;;;;;5123292;27;34388;-77
2022/04/03 03:28:13;;;;;;;6.13;4.30;;;-1.10;34.00;;;;;;5122488;27;35935;-77
2022/04/03 03:30:39;;;;;;;7.20;4.57;;;-1.10;33.90;;;;;;5072395;28;34095;-77
2022/04/03 03:33:06;;;;;;;9.27;4.10;;;-1.10;34.00;;;;;;5105804;28;34179;-77
2022/04/03 03:35:33;;;;;;;6.15;4.25;;;-1.10;33.80;;;;;;5106914;27;34443;-77
2022/04/03 03:38:00;;;;;;;5.47;3.60;;;-1.10;34.00;;;;;;5092737;27;34411;-77
2022/04/03 03:40:27;;;;;;;6.30;4.00;;;-1.20;34.00;;;;;;5108803;27;34230;-77
2022/04/03 03:42:53;;;;;;;4.63;4.00;;;-1.20;34.10;;;;;;5109079;27;34257;-78
2022/04/03 03:45:19;;;;;;;5.47;3.90;;;-1.20;33.90;;;;;;5127687;27;34131;-77
2022/04/03 03:47:46;;;;;;;5.45;4.07;;;-1.20;33.80;;;;;;5097056;27;35633;-77
2022/04/03 03:50:14;;;;;;;5.70;3.92;;;-1.30;34.10;;;;;;5106492;27;34388;-77
2022/04/03 03:52:41;;;;;;;4.47;3.80;;;-1.30;34.30;;;;;;5091101;28;34191;-77
2022/04/03 03:55:08;;;;;;;5.93;3.97;;;-1.30;34.10;;;;;;5109583;27;34448;-78
2022/04/03 03:57:34;;;;;;;4.50;3.38;;;-1.40;34.00;;;;;;5091113;27;35933;-77
2022/04/03 04:00:01;;;;;;;4.20;3.78;;;-1.40;34.00;;;;;;5108904;27;34223;-77
2022/04/03 04:02:27;;;;;;;4.97;3.38;;;-1.40;33.90;;;;;;5108547;27;34116;-77
2022/04/03 04:04:53;;;;;;;4.85;3.58;;;-1.40;34.20;;;;;;5109211;27;34295;-77
2022/04/03 04:07:19;;;;;;;5.03;3.60;;;-1.50;34.30;;;;;;5127094;27;34429;-77
2022/04/03 04:09:45;;;;;;;4.18;3.47;;;-1.50;34.00;;;;;;5092028;27;34268;-77
2022/04/03 04:12:11;;;;;;;4.05;3.47;;;-1.50;34.20;;;;;;5127251;27;34297;-77
2022/04/03 04:14:39;;;;;;;5.97;4.03;;;-1.60;34.30;;;;;;5108208;27;34183;-77
2022/04/03 04:17:07;;;;;;;4.40;3.78;;;-1.60;34.30;;;;;;5108345;27;35532;-77
2022/04/03 04:19:34;;;;;;;3.83;3.40;;;-1.60;34.30;;;;;;5107980;27;34018;-77
2022/04/03 04:22:00;;;;;;;5.97;4.00;;;-1.60;34.40;;;;;;5109464;27;34182;-77
2022/04/03 04:24:26;;;;;;;5.32;3.58;;;-1.70;34.90;;;;;;5105059;28;34197;-77
2022/04/03 04:26:51;;;;;;;5.13;3.33;;;-1.70;34.90;;;;;;5108841;27;34139;-77
2022/04/03 04:29:17;;;;;;;4.72;3.55;;;-1.70;34.60;;;;;;5106854;27;34660;-77
2022/04/03 04:31:43;;;;;;;5.28;3.90;;;-1.70;34.40;;;;;;5091536;27;34156;-77
2022/04/03 04:34:09;;;;;;;5.55;3.33;;;-1.70;34.40;;;;;;5091967;27;34206;-77
2022/04/03 04:36:35;;;;;;;4.75;3.53;;;-1.80;34.60;;;;;;5091083;27;35501;-77
2022/04/03 04:39:01;;;;;;;5.05;3.58;;;-1.80;34.00;;;;;;5126877;27;34058;-77
2022/04/03 04:41:27;;;;;;;6.15;3.92;;;-1.80;34.50;;;;;;5108038;27;34080;-77
2022/04/03 04:43:53;;;;;;;4.55;3.45;;;-1.90;34.50;;;;;;5108497;27;34500;-77
2022/04/03 04:46:20;;;;;;;4.15;3.63;;;-1.90;34.20;;;;;;5107923;27;36043;-77
2022/04/03 04:48:47;;;;;;;5.88;3.72;;;-1.90;34.20;;;;;;5108162;27;34281;-77
2022/04/03 04:51:13;;;;;;;5.07;3.65;;;-2.00;34.50;;;;;;5090997;27;34177;-77
2022/04/03 04:53:39;;;;;;;6.93;3.97;;;-2.00;34.80;;;;;;5074449;27;34454;-77
2022/04/03 04:56:05;;;;;;;5.35;3.92;;;-2.00;34.30;;;;;;5108166;27;35536;-77
2022/04/03 04:58:31;;;;;;;4.60;3.47;;;-2.10;34.70;;;;;;5107920;27;34080;-77
2022/04/03 05:00:57;;;;;;;4.65;3.28;;;-2.10;34.90;;;;;;5110474;27;34309;-77
2022/04/03 05:03:23;;;;;;;7.97;3.78;;;-2.10;35.00;;;;;;5070833;28;34325;-77
2022/04/03 05:05:49;;;;;;;6.90;3.92;;;-2.10;34.70;;;;;;5084200;28;35911;-77
2022/04/03 05:08:15;;;;;;;6.38;3.65;;;-2.10;34.40;;;;;;5065870;27;34069;-77
2022/04/03 05:10:41;;;;;;;3.85;3.45;;;-2.20;34.70;;;;;;5107750;27;34271;-77
2022/04/03 05:13:09;;;;;;;4.32;3.55;;;-2.20;35.00;;;;;;5108069;27;34163;-77
2022/04/03 05:15:35;;;;;;;5.78;3.35;;;-2.20;34.70;;;;;;5090642;27;36030;-77
2022/04/03 05:18:01;;;;;;;5.15;4.05;;;-2.20;35.30;;;;;;5107777;27;34218;-77
2022/04/03 05:20:28;;;;;;;5.60;3.92;;;-2.20;34.80;;;;;;5124330;27;34009;-77
2022/04/03 05:22:54;;;;;;;6.65;3.85;;;-2.20;34.90;;;;;;5091097;27;34069;-77
2022/04/03 05:25:20;;;;;;;4.82;4.07;;;-2.20;35.20;;;;;;5107489;27;35822;-77
2022/04/03 05:27:47;;;;;;;8.48;4.07;;;-2.20;35.00;;;;;;5125025;27;34355;-78
2022/04/03 05:30:14;;;;;;;7.95;4.13;;;-2.20;35.00;;;;;;5107619;27;34270;-77
2022/04/03 05:32:41;;;;;;;4.57;3.30;;;-2.20;35.00;;;;;;5126052;27;34374;-77
2022/04/03 05:35:08;;;;;;;5.60;3.83;;;-2.20;35.00;;;;;;5107697;27;35665;-77
2022/04/03 05:37:36;;;;;;;6.30;3.90;;;-2.20;34.50;;;;;;5107783;27;34175;-77
2022/04/03 05:40:04;;;;;;;5.63;3.78;;;-2.20;34.50;;;;;;5107609;27;34166;-77
2022/04/03 05:42:33;;;;;;;5.43;3.70;;;-2.20;34.90;;;;;;5107773;27;34076;-77
2022/04/03 05:44:59;;;;;;;4.97;3.90;;;-2.10;35.50;;;;;;5106772;27;36287;-77
2022/04/03 05:47:25;;;;;;;6.25;4.20;;;-2.10;35.60;;;;;;5090274;27;34219;-77
2022/04/03 05:49:51;;;;;;;4.32;3.47;;;-2.00;35.50;;;;;;5112005;27;34151;-78
2022/04/03 05:52:17;;;;;;;6.93;4.25;;;-1.90;35.70;;;;;;5107825;27;34126;-78
2022/04/03 05:54:42;;;;;;;5.25;4.05;;;-1.80;35.50;;;;;;5085756;28;36317;-78
2022/04/03 05:57:10;;;;;;;6.70;4.78;;;-1.80;35.50;;;;;;5089206;27;34386;-78
2022/04/03 05:59:36;;;;;;;5.00;3.72;;;-1.60;35.40;;;;;;5107926;27;34415;-78
2022/04/03 06:02:05;;;;;;;7.15;5.10;;;-1.50;35.40;;;;;;5090980;27;34108;-78
2022/04/03 06:04:32;;;;;;;6.40;4.78;;;-1.40;35.30;;;;;;5104520;27;36459;-78
2022/04/03 06:06:58;;;;;;;7.38;4.63;;;-1.40;35.10;;;;;;5090565;27;34199;-78
2022/04/03 06:09:25;;;;;;;5.25;4.43;;;-1.20;35.10;;;;;;5108011;27;34381;-78
2022/04/03 06:11:52;;;;;;;12.15;5.20;;;-1.10;35.00;;;;;;5104734;28;34068;-78
2022/04/03 06:14:17;;;;;;;5.22;4.45;;;-1.00;35.60;;;;;;5116910;27;34359;-78
2022/04/03 06:16:43;;;;;;;6.25;4.53;;;-1.00;34.80;;;;;;5090360;27;34286;-79
2022/04/03 06:19:11;;;;;;;6.03;4.88;;;-0.80;34.90;;;;;;5082096;27;34224;-79
2022/04/03 06:21:37;;;;;;;6.97;5.30;;;-0.70;34.80;;;;;;5100374;28;34306;-78
2022/04/03 06:24:04;;;;;;;7.15;5.30;;;-0.60;34.50;;;;;;5103541;27;35505;-79
2022/04/03 06:26:31;;;;;;;9.02;5.47;;;-0.50;34.70;;;;;;5102119;27;34261;-80
2022/04/03 06:28:57;;;;;;;7.03;5.28;;;-0.30;34.60;;;;;;5085313;27;34253;-79
2022/04/03 06:31:23;;;;;;;9.48;5.82;;;-0.20;34.60;;;;;;5069989;27;34592;-79
2022/04/03 06:33:49;;;;;;;8.38;5.47;;;0.00;34.80;;;;;;5111216;27;36017;-79
2022/04/03 06:36:15;;;;;;;9.23;6.30;;;0.10;34.40;;;;;;5073406;27;34277;-79
2022/04/03 06:38:42;;;;;;;9.23;6.07;;;0.30;34.20;;;;;;5074424;27;34265;-79
2022/04/03 06:41:08;;;;;;;7.13;5.55;;;0.50;33.90;;;;;;5113842;27;34168;-80
2022/04/03 06:43:35;;;;;;;12.30;6.13;;;0.60;33.40;;;;;;5096087;27;35702;-80
2022/04/03 06:46:01;;;;;;;7.63;6.07;;;0.80;33.00;;;;;;5119181;27;33977;-81
2022/04/03 06:48:28;;;;;;;14.57;6.60;;;1.00;33.00;;;;;;5122904;27;34323;-81
2022/04/03 06:50:55;;;;;;;9.75;5.90;;;1.10;32.70;;;;;;5115604;27;34203;-82
2022/04/03 06:53:27;;;;;;;9.57;6.50;;;1.30;32.70;;;;;;5107558;27;36259;-81
2022/04/03 06:55:54;;;;;;;7.30;5.63;;;1.40;32.60;;;;;;5109129;27;34522;-81
2022/04/03 06:58:20;;;;;;;9.82;5.80;;;1.60;32.30;;;;;;5115850;27;34300;-81
2022/04/03 07:00:45;;;;;;;9.63;5.75;;;1.80;32.10;;;;;;5077263;28;34171;-81
2022/04/03 07:03:11;;;;;;;8.63;5.82;;;2.00;32.00;;;;;;5111735;27;36234;-81
2022/04/03 07:05:40;;;;;;;8.00;6.10;;;2.10;31.90;;;;;;5095974;27;34251;-81
2022/04/03 07:08:07;;;;;;;8.85;5.45;;;2.30;32.20;;;;;;5108563;27;34225;-81
2022/04/03 07:10:33;;;;;;;8.23;5.35;;;2.40;31.60;;;;;;5112096;27;34498;-81
2022/04/03 07:13:02;;;;;;;6.25;4.80;;;2.60;31.60;;;;;;5096261;27;35551;-81
2022/04/03 07:15:28;;;;;;;8.88;5.57;;;2.70;30.90;;;;;;5094300;27;34467;-81
2022/04/03 07:17:54;;;;;;;7.45;5.30;;;2.90;31.50;;;;;;5114639;27;34440;-81
2022/04/03 07:20:20;;;;;;;10.45;6.30;;;3.00;30.80;;;;;;5111661;27;34442;-81
2022/04/03 07:22:52;;;;;;;12.07;5.82;;;3.10;30.80;;;;;;5113861;27;35174;-81
2022/04/03 07:25:20;;;;;;;8.35;5.85;;;3.30;30.60;;;;;;5080793;27;33741;-80
2022/04/03 07:27:46;;;;;;;7.68;5.75;;;3.50;30.40;;;;;;5106061;27;34087;-80
2022/04/03 07:30:12;;;;;;;7.32;6.00;;;3.70;30.10;;;;;;5126015;27;34132;-81
2022/04/03 07:32:38;;;;;;;9.57;5.40;;;3.90;30.00;;;;;;5082950;27;36204;-80
2022/04/03 07:35:05;;;;;;;13.20;6.30;;;4.30;29.80;;;;;;5114800;27;33748;-80
2022/04/03 07:37:32;;;;;;;8.43;5.10;;;4.60;29.20;;;;;;5095957;27;34509;-80
2022/04/03 07:39:59;;;;;;;5.65;4.57;;;4.80;29.00;;;;;;5113435;27;34375;-79
2022/04/03 07:42:25;;;;;;;5.78;4.63;;;5.00;28.80;;;;;;5111319;27;36051;-80
2022/04/03 07:44:51;;;;;;;8.60;5.05;;;5.30;28.10;;;;;;5129599;27;34188;-79
2022/04/03 07:47:17;;;;;;;9.65;5.00;;;5.60;27.60;;;;;;5105609;27;33840;-80
2022/04/03 07:49:43;;;;;;;5.43;4.22;;;5.80;27.70;;;;;;5112993;27;34316;-79
2022/04/03 07:52:09;;;;;;;5.95;4.90;;;6.00;27.40;;;;;;5108975;27;35395;-79
2022/04/03 07:54:38;;;;;;;5.35;4.57;;;6.20;27.50;;;;;;5111227;27;34493;-79
2022/04/03 07:57:06;;;;;;;5.65;4.82;;;6.30;27.10;;;;;;5105628;27;34225;-77
2022/04/03 07:59:32;;;;;;;5.53;4.40;;;6.40;26.50;;;;;;5100136;28;34252;-78
2022/04/03 08:01:58;;;;;;;4.93;4.18;;;6.50;26.30;;;;;;5089775;28;36279;-79
2022/04/03 08:04:24;;;;;;;6.13;4.07;;;6.70;26.30;;;;;;5057427;28;34212;-77
2022/04/03 08:06:50;;;;;;;6.22;4.00;;;7.00;26.20;;;;;;5090259;28;34178;-78
2022/04/03 08:09:16;;;;;;;5.07;3.88;;;7.20;25.70;;;;;;5104432;27;34162;-77
2022/04/03 08:11:42;;;;;;;3.55;3.25;;;7.50;25.30;;;;;;5063843;28;34471;-77
2022/04/03 08:14:09;;;;;;;4.82;3.78;;;7.60;24.20;;;;;;5104898;27;34211;-77
2022/04/03 08:16:35;;;;;;;4.00;3.58;;;7.60;23.80;;;;;;5109454;27;34449;-77
2022/04/03 08:19:03;;;;;;;4.03;3.35;;;7.60;23.90;;;;;;5104370;28;34332;-77
2022/04/03 08:21:30;;;;;;;3.67;3.22;;;7.70;23.90;;;;;;5105555;27;35751;-77
2022/04/03 08:23:56;;;;;;;3.60;3.22;;;7.70;22.40;;;;;;5109070;27;34118;-77
2022/04/03 08:26:26;;;;;;;3.50;3.05;;;7.80;23.50;;;;;;5105531;28;34163;-77
2022/04/03 08:28:53;;;;;;;3.15;2.95;;;7.80;23.30;;;;;;5096625;27;34465;-78
2022/04/03 08:31:22;;;;;;;4.40;3.08;;;7.80;22.80;;;;;;5127478;27;34336;-77
2022/04/03 08:33:50;;;;;;;3.88;2.90;;;7.90;23.00;;;;;;5111120;27;34302;-77
2022/04/03 08:36:16;;;;;;;3.40;2.90;;;8.00;23.20;;;;;;5108103;27;34111;-76
2022/04/03 08:38:42;;;;;;;3.10;2.80;;;8.20;22.50;;;;;;5126540;27;34046;-77
2022/04/03 08:41:09;;;;;;;3.20;2.80;;;8.30;22.30;;;;;;5107577;27;35519;-77
2022/04/03 08:43:34;;;;;;;4.95;3.00;;;8.40;21.40;;;;;;5107811;27;34109;-77
2022/04/03 08:46:03;;;;;;;7.10;3.10;;;8.60;21.30;;;;;;5091388;27;34360;-76
2022/04/03 08:48:32;;;;;;;3.85;3.25;;;8.70;21.00;;;;;;5108316;27;34545;-77
2022/04/03 08:51:02;;;;;;;4.88;2.92;;;8.80;20.80;;;;;;5111301;27;35591;-78
2022/04/03 08:53:30;;;;;;;3.35;2.42;;;8.80;20.20;;;;;;5090621;27;36094;-77
2022/04/03 08:55:57;;;;;;;3.08;2.72;;;8.90;20.00;;;;;;5089008;28;34127;-77
2022/04/03 08:58:23;;;;;;;3.17;2.70;;;8.80;20.60;;;;;;5084004;27;34626;-77
2022/04/03 09:00:49;;;;;;;4.03;2.20;;;8.80;20.20;;;;;;5100020;27;35782;-77
2022/04/03 09:03:15;;;;;;;6.43;2.75;;;8.80;20.00;;;;;;5106517;27;34445;-76
2022/04/03 09:05:43;;;;;;;3.63;2.10;;;8.70;19.50;;;;;;5108082;27;34151;-77
2022/04/03 09:08:10;;;;;;;3.63;2.63;;;8.60;18.00;;;;;;5107250;27;34426;-77
2022/04/03 09:10:38;;;;;;;3.55;2.35;;;8.50;19.50;;;;;;5102453;27;35606;-76
2022/04/03 09:13:04;;;;;;;3.28;1.90;;;8.40;19.30;;;;;;5084216;28;34170;-77
2022/04/03 09:15:32;;;;;;;2.63;2.13;;;8.30;19.30;;;;;;5107922;27;34128;-77
2022/04/03 09:18:00;;;;;;;2.72;1.85;;;8.30;18.70;;;;;;5120877;27;34092;-76
2022/04/03 09:20:30;;;;;;;1.42;1.30;;;8.30;18.20;;;;;;5092763;28;34483;-77
2022/04/03 09:23:01;;;;;;;1.52;1.42;;;8.30;16.10;;;;;;5095650;28;35236;-78
2022/04/03 09:25:29;;;;;;;2.53;1.58;;;8.30;17.10;;;;;;5093794;28;34265;-77
2022/04/03 09:28:04;;;;;;;1.80;1.40;;;8.30;16.10;;;;;;5107812;27;34504;-77
2022/04/03 09:30:34;;;;;;;1.35;1.25;;;8.30;15.20;;;;;;5105966;27;35588;-77
2022/04/03 09:33:01;;;;;;;1.40;1.30;;;8.60;15.50;;;;;;5125211;27;34447;-76
2022/04/03 09:35:29;;;;;;;1.40;1.30;;;8.90;15.60;;;;;;5090853;27;34393;-77
2022/04/03 09:38:13;;;;;;;1.80;1.40;;;9.00;14.60;;;;;;5126561;27;34406;-76
2022/04/03 09:40:48;;;;;;;1.58;1.40;;;9.10;7.40;;;;;;5110080;27;34279;-76
2022/04/03 09:43:25;;;;;;;1.90;1.33;;;9.20;13.60;;;;;;5089671;27;34118;-76
2022/04/03 09:45:54;;;;;;;1.95;1.40;;;9.40;13.40;;;;;;5117882;27;34275;-77
2022/04/03 09:48:29;;;;;;;1.63;1.52;;;9.40;9.40;;;;;;5122466;27;34190;-76
2022/04/03 09:51:06;;;;;;;1.50;1.38;;;9.40;11.50;;;;;;5108594;27;35571;-76
2022/04/03 09:53:49;;;;;;;1.88;1.58;;;9.70;10.80;;;;;;5114530;27;34332;-76
2022/04/03 09:56:31;;;;;;;2.92;1.50;;;9.90;8.10;;;;;;5108705;27;34237;-76
2022/04/03 09:58:59;;;;;;;2.33;1.58;;;9.90;6.80;;;;;;5099510;28;34518;-76
2022/04/03 10:01:29;;;;;;;1.80;1.70;;;9.90;12.60;;;;;;5074892;27;35866;-76
2022/04/03 10:03:59;;;;;;;1.60;1.50;;;9.80;11.00;;;;;;5091229;27;34502;-76
2022/04/03 10:06:25;;;;;;;1.58;1.35;;;9.70;13.00;;;;;;5103160;28;34408;-76
2022/04/03 10:08:53;;;;;;;2.83;1.80;;;9.70;13.20;;;;;;5107285;27;34477;-76
2022/04/03 10:11:20;;;;;;;3.20;1.65;;;9.60;12.10;;;;;;5107018;27;36194;-77
2022/04/03 10:13:47;;;;;;;1.70;1.60;;;9.50;12.70;;;;;;5106164;27;34178;-76
2022/04/03 10:16:15;;;;;;;1.45;1.35;;;9.50;12.90;;;;;;5070993;28;35303;-76
2022/04/03 10:18:43;;;;;;;2.25;1.70;;;9.60;12.30;;;;;;5104987;27;34594;-77
2022/04/03 10:21:19;;;;;;;1.77;1.67;;;9.50;12.20;;;;;;5109805;27;35581;-77
2022/04/03 10:23:46;;;;;;;2.28;1.60;;;9.30;7.80;;;;;;5092046;27;34088;-77
2022/04/03 10:26:16;;;;;;;1.48;1.38;;;9.10;12.00;;;;;;5073694;27;34172;-77
2022/04/03 10:29:01;;;;;;;3.25;1.65;;;9.00;11.60;;;;;;5107308;27;34071;-77
2022/04/03 10:31:27;;;;;;;3.90;1.52;;;8.90;5.70;;;;;;5089508;27;35859;-77
2022/04/03 10:33:53;;;;;;;4.25;1.60;;;8.80;12.70;;;;;;5107277;27;34201;-77
2022/04/03 10:36:30;;;;;;;1.50;1.40;;;8.80;12.80;;;;;;5109903;27;34433;-77
2022/04/03 10:39:01;;;;;;;1.60;1.50;;;8.90;9.70;;;;;;5126349;27;34065;-77
2022/04/03 10:41:35;;;;;;;2.15;1.70;;;8.90;11.40;;;;;;5088810;27;34435;-77
2022/04/03 10:44:21;;;;;;;3.38;1.45;;;8.80;9.00;;;;;;5089317;27;34441;-77
2022/04/03 10:47:19;;;;;;;2.30;1.70;;;8.80;8.10;;;;;;5107400;27;34097;-77
2022/04/03 10:50:02;;;;;;;2.72;1.50;;;9.00;6.50;;;;;;5089073;27;34536;-77
2022/04/03 10:52:52;;;;;;;2.50;1.80;;;9.30;6.50;;;;;;5090468;27;36720;-77
2022/04/03 10:55:29;;;;;;;1.63;1.52;;;9.40;6.10;;;;;;5097423;27;34196;-77
2022/04/03 10:58:02;;;;;;;3.08;1.67;;;9.40;7.20;;;;;;5087906;27;34152;-77
2022/04/03 11:00:31;;;;;;;1.65;1.45;;;9.50;11.30;;;;;;5092098;27;33843;-77
2022/04/03 11:03:21;;;;;;;2.97;1.60;;;10.00;10.10;;;;;;5092063;27;36785;-77
2022/04/03 11:05:47;;;;;;;2.20;1.70;;;10.30;9.60;;;;;;5110851;27;34234;-77
2022/04/03 11:08:17;;;;;;;1.50;1.40;;;10.30;7.70;;;;;;5107250;27;34339;-76
2022/04/03 11:10:46;;;;;;;2.58;2.13;;;10.20;8.50;;;;;;5107576;27;34407;-77
2022/04/03 11:13:13;;;;;;;3.05;2.00;;;10.00;9.80;;;;;;5103688;27;36967;-77
2022/04/03 11:15:44;;;;;;;2.80;1.85;;;10.10;9.60;;;;;;5102028;27;34327;-78
2022/04/03 11:18:27;;;;;;;1.95;1.60;;;10.20;9.80;;;;;;5123276;27;34002;-77
2022/04/03 11:21:28;;;;;;;2.13;1.92;;;10.30;5.50;;;;;;5111936;27;34035;-77
2022/04/03 11:24:01;;;;;;;2.13;1.90;;;10.60;3.90;;;;;;5092633;27;35966;-78
2022/04/03 11:26:29;;;;;;;1.77;1.67;;;10.80;8.60;;;;;;5108961;27;34092;-77
2022/04/03 11:28:56;;;;;;;3.08;2.00;;;10.80;10.70;;;;;;5093384;27;34303;-77
2022/04/03 11:31:22;;;;;;;2.05;1.85;;;10.90;10.80;;;;;;5110711;27;34610;-77
2022/04/03 11:33:49;;;;;;;3.60;2.40;;;10.70;10.30;;;;;;5109455;27;35542;-76
2022/04/03 11:36:18;;;;;;;2.20;2.00;;;10.60;11.10;;;;;;5109341;27;34740;-77
2022/04/03 11:38:47;;;;;;;1.73;1.63;;;10.50;10.00;;;;;;5088082;27;34242;-77
2022/04/03 11:41:20;;;;;;;2.55;2.10;;;10.40;9.90;;;;;;5104824;27;34119;-76
2022/04/03 11:44:03;;;;;;;1.95;1.85;;;10.40;9.80;;;;;;5093122;27;36733;-77
2022/04/03 11:46:37;;;;;;;1.75;1.65;;;10.50;6.10;;;;;;5107768;27;34234;-77
2022/04/03 11:49:13;;;;;;;2.33;1.70;;;10.50;10.50;;;;;;5057991;28;34086;-76
2022/04/03 11:51:41;;;;;;;2.00;1.80;;;10.60;6.80;;;;;;5090153;28;34131;-77
2022/04/03 11:54:07;;;;;;;1.90;1.80;;;10.70;9.70;;;;;;5073570;28;35900;-77
2022/04/03 11:56:35;;;;;;;1.83;1.70;;;10.50;10.20;;;;;;5089537;28;34126;-77
2022/04/03 11:59:04;;;;;;;2.40;1.67;;;10.50;10.40;;;;;;5089934;28;34128;-77
2022/04/03 12:01:34;;;;;;;3.67;1.92;;;10.40;9.90;;;;;;5099196;27;34156;-77
2022/04/03 12:04:10;;;;;;;2.90;1.95;;;10.40;9.40;;;;;;5110731;27;35744;-77
2022/04/03 12:06:37;;;;;;;2.25;2.00;;;10.10;7.50;;;;;;5127426;27;34108;-77
2022/04/03 12:09:09;;;;;;;2.83;1.98;;;10.00;10.00;;;;;;5109260;27;34120;-77
2022/04/03 12:11:36;;;;;;;2.38;1.90;;;10.10;10.00;;;;;;5108387;27;34104;-77
2022/04/03 12:14:04;;;;;;;1.80;1.70;;;10.50;9.90;;;;;;5109014;27;36503;-77
2022/04/03 12:16:42;;;;;;;1.77;1.67;;;10.80;9.80;;;;;;5093054;27;34232;-77
2022/04/03 12:19:15;;;;;;;2.10;1.90;;;11.30;6.90;;;;;;5100778;27;34422;-76
2022/04/03 12:21:49;;;;;;;1.90;1.80;;;11.80;8.70;;;;;;5110770;27;34286;-76
2022/04/03 12:24:21;;;;;;;3.92;1.73;;;12.10;8.00;;;;;;5109780;27;34535;-76
2022/04/03 12:26:59;;;;;;;3.33;2.03;;;12.40;8.20;;;;;;5109968;27;34373;-76
2022/04/03 12:29:27;;;;;;;1.95;1.85;;;12.70;4.10;;;;;;5091494;27;34082;-77
2022/04/03 12:32:05;;;;;;;1.80;1.70;;;12.70;6.80;;;;;;5093728;27;34211;-77
2022/04/03 12:34:33;;;;;;;2.05;1.92;;;12.50;3.30;;;;;;5110284;27;35716;-77
2022/04/03 12:37:01;;;;;;;2.38;2.00;;;12.20;8.00;;;;;;5089063;28;34397;-75
2022/04/03 12:39:44;;;;;;;1.98;1.70;;;11.80;8.50;;;;;;5109543;27;34096;-75
2022/04/03 12:42:26;;;;;;;2.03;1.63;;;11.50;3.70;;;;;;5092680;27;34130;-74
2022/04/03 12:45:22;;;;;;;3.95;1.70;;;11.40;4.30;;;;;;5088741;28;36625;-75
2022/04/03 12:47:58;;;;;;;3.25;1.92;;;11.40;1.20;;;;;;5096198;27;34103;-74
2022/04/03 12:50:26;;;;;;;2.35;1.80;;;11.60;8.40;;;;;;5108481;27;34141;-74
2022/04/03 12:52:56;;;;;;;2.83;2.38;;;11.80;8.30;;;;;;5094844;27;34492;-75
2022/04/03 12:55:33;;;;;;;2.15;1.95;;;11.80;7.70;;;;;;5071242;28;35486;-75
2022/04/03 12:58:30;;;;;;;2.25;1.90;;;11.90;3.50;;;;;;5116974;27;34090;-76